Orient, Washington
Current Conditions -  °F | °C
As of 4:00 PM on Thursday 18 Dec 2014 (Local Time) from CYCG Reporting Station
Haze Haze  
Wind Chill: 31°   Ceiling: 2700
Heat Index: 36°   Visibility: 6mi
Dew Point: 34°   Wind: 6mph
Humidity: 93%   Direction: 150°SSE
Pressure: 29.99"   Gusts: NA
Location:  48.87°N, 118.21°W
Report Text: CYCG 190000Z 15005KT 120V180 6SM BR FEW004 BKN027 OVC040 02/01 A2999 RMK SF2SC5SC1 SLP175
Loading
Personal Weather Stations






























Interactive Weather Map New forecast layout! Learn more

10-Day Weather Forecast

Advertisements
Track Severe Weather on mobile